PORT of BREST

Country: France Country: France (FR)
Latitude / Longitude: 48.376655° / -4.4856975° Show on Map Show on Map
Local Time:  UTC +2
UN/LOCODE: FRBES
Vessels in Port: 20
Expected Arrivals: 7

Recent Arrivals & Departures


Vessel Name
Arrival (UTC)
Arrival (LT)
Departure (UTC)
Departure (LT)
Vessel Type: Passenger Vessels  TREBERON 2014-10-22 06:13:00 2014-10-22 08:13:00
Vessel Type: Fishing  SAPHIR 2014-10-22 06:03:00 2014-10-22 08:03:00
Vessel Type: Fishing  VENUS II 2014-10-16 12:09:00 2014-10-16 14:09:00 2014-10-22 05:56:00 2014-10-22 07:56:00
Vessel Type: Fishing  LE CHALLENGER 2014-10-20 10:33:00 2014-10-20 12:33:00 2014-10-22 05:55:00 2014-10-22 07:55:00
Vessel Type: Fishing  MELANIE VINCENT 2014-10-20 12:26:00 2014-10-20 14:26:00 2014-10-22 05:54:00 2014-10-22 07:54:00
Vessel Type: Fishing  MAM GOZ 2014-10-20 12:01:00 2014-10-20 14:01:00 2014-10-22 05:48:00 2014-10-22 07:48:00
Vessel Type: Passenger Vessels  TERENEZ 2014-10-21 17:00:00 2014-10-21 19:00:00 2014-10-22 05:35:00 2014-10-22 07:35:00
Vessel Type: Passenger Vessels  ARUN 2014-10-21 15:24:00 2014-10-21 17:24:00 2014-10-22 05:32:00 2014-10-22 07:32:00
Vessel Type: Passenger Vessels  TIBIDY 2014-10-21 14:52:00 2014-10-21 16:52:00 2014-10-22 05:30:00 2014-10-22 07:30:00
Vessel Type: Passenger Vessels  BINDY 2014-10-21 15:13:00 2014-10-21 17:13:00 2014-10-22 05:24:00 2014-10-22 07:24:00

Expected Arrivals


Vessel Name
Scheduled Arrival (UTC)
Scheduled Arrival (LT)
Estimated Arrival (UTC)
Estimated Arrival (LT)
Vessel Type: Cargo Vessels  STEINAU 2014-10-22 16:00:00 2014-10-22 18:00:00 2014-10-22 17:05:00 2014-10-22 19:05:00
Vessel Type: Tankers  STEN BERGEN 2014-10-24 01:00:00 2014-10-24 03:00:00 2014-10-24 12:32:00 2014-10-24 14:32:00
Vessel Type: Tankers  DAGMAR THERESA 2014-10-24 08:00:00 2014-10-24 10:00:00
Vessel Type: Yachts & Others  LHERMIONE 2014-10-24 16:00:00 2014-10-24 18:00:00 2014-10-22 02:59:00 2014-10-22 04:59:00
Vessel Type: Cargo Vessels  OSTERMARSCH 2014-10-28 08:00:00 2014-10-28 10:00:00 2014-10-27 08:18:00 2014-10-27 10:18:00
Vessel Type: Cargo Vessels  ANDEAN 2014-10-28 11:00:00 2014-10-28 13:00:00 2014-10-30 03:58:00 2014-10-30 05:58:00
Vessel Type: Tugs, Pilots etc  SAINT DENIS 2014-12-01 23:00:00 2014-12-02 00:00:00

Wind Forecast


    
Time (UTC)
Speed
Direction
Temperature
2014-10-22 06:00:00 14 knots 325° 14°C
2014-10-22 09:00:00 13 knots 314° 14°C
2014-10-22 12:00:00 13 knots 305° 14°C
2014-10-22 15:00:00 12 knots 296° 14°C
2014-10-22 18:00:00 11 knots 288° 14°C
2014-10-22 21:00:00 10 knots 268° 14°C
2014-10-23 00:00:00 13 knots 250° 14°C
2014-10-23 03:00:00 15 knots 244° 15°C
2014-10-23 06:00:00 15 knots 238° 15°C
2014-10-23 09:00:00 15 knots 237° 15°C
2014-10-23 12:00:00 16 knots 233° 16°C
2014-10-23 15:00:00 14 knots 225° 16°C
2014-10-23 18:00:00 14 knots 214° 16°C
2014-10-23 21:00:00 14 knots 218° 16°C
2014-10-24 00:00:00 14 knots 226° 16°C
2014-10-24 03:00:00 9 knots 225° 16°C
2014-10-24 06:00:00 12 knots 244° 16°C